Time;durP1;ratioP1;P1;durP2;ratioP2;P2;SDS_P1;SDS_P2;PMS_P1;PMS_P2;Temp;Humidity;BMP_temperature;BMP_pressure;BME280_temperature;BME280_humidity;BME280_pressure;Samples;Min_cycle;Max_cycle;Signal;HPM_P1;HPM_P2
2021/09/27 00:01:18;;;;;;;14.68;11.05;;;17.00;89.70;;;;;;5050301;28;20108;-69
2021/09/27 00:03:45;;;;;;;13.23;11.45;;;17.00;88.70;;;;;;5031554;28;20047;-70
2021/09/27 00:06:12;;;;;;;15.45;10.50;;;17.00;88.40;;;;;;5051059;28;20078;-69
2021/09/27 00:08:38;;;;;;;15.95;10.52;;;17.00;88.00;;;;;;5047491;28;20028;-69
2021/09/27 00:11:08;;;;;;;12.10;10.60;;;17.00;88.20;;;;;;5032782;28;20112;-69
2021/09/27 00:13:36;;;;;;;14.15;10.95;;;16.90;87.80;;;;;;5051684;28;20033;-69
2021/09/27 00:16:04;;;;;;;16.58;11.25;;;17.00;88.10;;;;;;5050079;28;20029;-69
2021/09/27 00:18:30;;;;;;;14.00;10.25;;;17.00;88.10;;;;;;5050683;28;20061;-70
2021/09/27 00:21:00;;;;;;;13.07;10.55;;;17.00;87.70;;;;;;5051402;28;20052;-70
2021/09/27 00:23:29;;;;;;;12.88;10.95;;;17.00;87.50;;;;;;5049508;28;20060;-69
2021/09/27 00:25:55;;;;;;;13.07;10.55;;;16.90;87.50;;;;;;5030810;28;20017;-69
2021/09/27 00:28:21;;;;;;;18.27;13.70;;;16.80;87.60;;;;;;5049935;28;20032;-69
2021/09/27 00:30:47;;;;;;;19.75;15.70;;;16.80;88.10;;;;;;5048545;28;20021;-69
2021/09/27 00:33:15;;;;;;;12.82;11.43;;;16.70;88.30;;;;;;5050404;28;20029;-69
2021/09/27 00:35:41;;;;;;;13.18;11.65;;;16.60;88.70;;;;;;5047683;28;20418;-69
2021/09/27 00:38:08;;;;;;;14.75;11.75;;;16.60;88.70;;;;;;5032348;28;20032;-70
2021/09/27 00:40:41;;;;;;;15.27;11.18;;;16.60;89.00;;;;;;5031296;28;20545;-70
2021/09/27 00:43:07;;;;;;;13.30;11.43;;;16.60;89.10;;;;;;5046186;28;20060;-70
2021/09/27 00:45:38;;;;;;;14.27;12.27;;;16.60;88.70;;;;;;5049139;28;20029;-70
2021/09/27 00:48:04;;;;;;;13.43;11.97;;;16.60;89.00;;;;;;5032919;28;20021;-70
2021/09/27 00:50:33;;;;;;;13.80;12.30;;;16.60;89.30;;;;;;5053001;28;20286;-70
2021/09/27 00:53:04;;;;;;;15.43;12.70;;;16.70;89.40;;;;;;5043055;28;20033;-70
2021/09/27 00:55:30;;;;;;;13.93;11.77;;;16.70;89.50;;;;;;5027382;28;20028;-70
2021/09/27 00:57:56;;;;;;;16.48;12.38;;;16.70;89.20;;;;;;5032726;28;20501;-70
2021/09/27 01:00:27;;;;;;;13.50;11.70;;;16.70;89.20;;;;;;5029906;28;20418;-69
2021/09/27 01:02:53;;;;;;;20.60;11.98;;;16.80;88.20;;;;;;5033500;28;20025;-69
2021/09/27 01:05:21;;;;;;;12.65;10.60;;;16.90;88.50;;;;;;5050419;28;20667;-71
2021/09/27 01:08:02;;;;;;;13.35;11.00;;;16.90;87.90;;;;;;5030979;28;20032;-70
2021/09/27 01:11:04;;;;;;;11.90;10.15;;;16.90;87.70;;;;;;5048319;28;20029;-69
2021/09/27 01:13:43;;;;;;;12.48;10.10;;;17.00;87.80;;;;;;5046545;28;20414;-70
2021/09/27 01:16:25;;;;;;;11.63;9.90;;;17.00;87.50;;;;;;5049158;28;20020;-70
2021/09/27 01:18:59;;;;;;;;;;;17.00;86.80;;;;;;5047206;28;20033;-70
2021/09/27 01:21:40;;;;;;;13.45;10.90;;;17.00;86.80;;;;;;5048714;28;19912;-70
2021/09/27 01:24:20;;;;;;;19.52;14.10;;;17.10;86.20;;;;;;5026135;28;20029;-69
2021/09/27 01:27:13;;;;;;;18.87;13.87;;;17.10;86.20;;;;;;5033633;28;20029;-72
2021/09/27 01:30:09;;;;;;;19.20;14.48;;;17.20;86.50;;;;;;5044973;28;20037;-69
2021/09/27 01:32:47;;;;;;;21.63;14.63;;;17.20;86.90;;;;;;5028963;28;20032;-71
2021/09/27 01:35:38;;;;;;;20.48;15.43;;;17.20;87.30;;;;;;5048164;28;20032;-70
2021/09/27 01:38:25;;;;;;;18.63;15.40;;;17.20;87.40;;;;;;5048436;28;20071;-69
2021/09/27 01:41:26;;;;;;;16.05;12.57;;;17.20;87.50;;;;;;5046257;28;20044;-70
2021/09/27 01:44:23;;;;;;;14.25;11.80;;;17.20;87.20;;;;;;5038622;28;20556;-70
2021/09/27 01:47:02;;;;;;;18.50;14.50;;;17.20;87.50;;;;;;5047326;28;20040;-70
2021/09/27 01:49:53;;;;;;;14.57;11.70;;;17.20;87.60;;;;;;5049756;28;20044;-70
2021/09/27 01:52:37;;;;;;;13.68;10.88;;;17.20;87.50;;;;;;5049675;28;20017;-70
2021/09/27 01:55:18;;;;;;;13.43;11.75;;;17.20;87.60;;;;;;5042417;28;20052;-70
2021/09/27 01:58:04;;;;;;;15.45;11.80;;;17.20;87.70;;;;;;5051774;28;20108;-70
2021/09/27 02:00:40;;;;;;;13.82;11.05;;;17.20;87.60;;;;;;5032153;28;20036;-68
2021/09/27 02:03:18;;;;;;;16.15;12.40;;;17.20;87.80;;;;;;5047351;28;20033;-72
2021/09/27 02:06:24;;;;;;;12.45;11.15;;;17.20;87.50;;;;;;5034744;28;20028;-71
2021/09/27 02:09:03;;;;;;;12.95;11.60;;;17.30;87.60;;;;;;5050130;28;20029;-70
2021/09/27 02:11:31;;;;;;;17.08;12.15;;;17.30;87.60;;;;;;5053475;28;20549;-70
2021/09/27 02:14:06;;;;;;;13.98;12.05;;;17.30;87.60;;;;;;5035508;28;20063;-70
2021/09/27 02:16:42;;;;;;;13.00;11.23;;;17.30;87.60;;;;;;5035506;28;20418;-71
2021/09/27 02:19:26;;;;;;;14.52;11.30;;;17.30;87.60;;;;;;5050938;28;20371;-69
2021/09/27 02:21:59;;;;;;;14.25;12.00;;;17.30;87.50;;;;;;5052339;28;20119;-71
2021/09/27 02:24:43;;;;;;;15.27;11.45;;;17.30;87.40;;;;;;5054743;28;20029;-72
2021/09/27 02:27:09;;;;;;;13.68;11.32;;;17.30;87.40;;;;;;5051408;28;20104;-70
2021/09/27 02:29:35;;;;;;;14.90;11.32;;;17.30;87.20;;;;;;5034897;28;20582;-70
2021/09/27 02:32:32;;;;;;;12.32;10.95;;;17.30;87.00;;;;;;5052606;28;20025;-70
2021/09/27 02:35:04;;;;;;;13.82;10.90;;;17.40;87.00;;;;;;5035233;28;20508;-70
2021/09/27 02:37:46;;;;;;;13.07;11.68;;;17.40;87.20;;;;;;5052904;28;20124;-71
2021/09/27 02:40:42;;;;;;;17.30;11.98;;;17.40;87.30;;;;;;5051355;28;20588;-70
2021/09/27 02:43:11;;;;;;;16.17;12.10;;;17.30;87.40;;;;;;5019553;28;20538;-71
2021/09/27 02:45:38;;;;;;;13.10;11.70;;;17.30;87.60;;;;;;5052200;28;20029;-70
2021/09/27 02:48:19;;;;;;;14.15;11.13;;;17.30;87.70;;;;;;5033093;28;20564;-70
2021/09/27 02:50:53;;;;;;;13.30;10.57;;;17.30;87.70;;;;;;5053732;28;20028;-69
2021/09/27 02:53:20;;;;;;;16.00;11.07;;;17.40;87.70;;;;;;5052278;28;20021;-70
2021/09/27 02:56:13;;;;;;;14.23;12.13;;;17.30;87.40;;;;;;5034005;28;20052;-69
2021/09/27 02:58:53;;;;;;;13.75;10.98;;;17.40;87.30;;;;;;5033118;28;20032;-70
2021/09/27 03:01:45;;;;;;;12.85;11.13;;;17.40;87.20;;;;;;5049100;28;20116;-69
2021/09/27 03:04:14;;;;;;;14.00;12.48;;;17.40;87.90;;;;;;5051726;28;20040;-70
2021/09/27 03:07:04;;;;;;;18.02;13.35;;;17.40;89.00;;;;;;5034039;28;20083;-69
2021/09/27 03:10:09;;;;;;;15.82;14.20;;;17.30;90.10;;;;;;5031814;28;20039;-67
2021/09/27 03:12:35;;;;;;;20.27;15.50;;;17.20;91.00;;;;;;5032802;28;20029;-71
2021/09/27 03:15:39;;;;;;;19.67;15.75;;;17.10;91.40;;;;;;5050345;28;20032;-71
2021/09/27 03:18:20;;;;;;;26.67;19.23;;;17.00;92.00;;;;;;5048777;28;20544;-70
2021/09/27 03:21:14;;;;;;;24.88;20.95;;;17.00;92.50;;;;;;5047401;28;20111;-70
2021/09/27 03:23:58;;;;;;;42.40;25.02;;;16.80;93.10;;;;;;5012047;28;20067;-71
2021/09/27 03:26:50;;;;;;;125.57;31.95;;;16.90;93.70;;;;;;5052753;28;20087;-70
2021/09/27 03:29:45;;;;;;;46.08;28.63;;;16.70;94.20;;;;;;5028762;28;20112;-69
2021/09/27 03:32:51;;;;;;;68.80;39.80;;;16.50;94.70;;;;;;5050775;28;20036;-70
2021/09/27 03:35:47;;;;;;;85.47;44.75;;;16.50;95.30;;;;;;5034880;28;20036;-70
2021/09/27 03:38:33;;;;;;;88.15;44.80;;;16.60;95.60;;;;;;5019779;28;20052;-70
2021/09/27 03:41:38;;;;;;;87.70;44.90;;;16.60;95.60;;;;;;5046289;28;20041;-70
2021/09/27 03:44:26;;;;;;;79.78;43.65;;;16.60;95.70;;;;;;5011725;28;20559;-70
2021/09/27 03:47:06;;;;;;;90.30;42.90;;;16.70;95.80;;;;;;5047817;28;20498;-69
2021/09/27 03:49:53;;;;;;;101.03;46.80;;;16.70;95.80;;;;;;5053202;28;20039;-72
2021/09/27 03:52:47;;;;;;;98.80;45.05;;;16.70;95.80;;;;;;5047704;28;20028;-77
2021/09/27 03:55:20;;;;;;;88.68;42.90;;;16.60;95.90;;;;;;5045952;28;20036;-70
2021/09/27 03:58:02;;;;;;;78.95;42.17;;;16.60;95.90;;;;;;5032028;28;20028;-70
2021/09/27 04:00:47;;;;;;;104.50;46.00;;;16.70;95.90;;;;;;5050866;28;20040;-70
2021/09/27 04:03:53;;;;;;;100.53;44.60;;;16.70;96.00;;;;;;5045776;28;20461;-70
2021/09/27 04:06:51;;;;;;;95.10;43.63;;;16.60;95.90;;;;;;5050472;28;20024;-70
2021/09/27 04:09:23;;;;;;;94.38;42.97;;;16.60;95.90;;;;;;5031933;28;20025;-70
2021/09/27 04:11:54;;;;;;;;;;;16.50;96.00;;;;;;5053032;28;20067;-70
2021/09/27 04:14:30;;;;;;;93.82;44.53;;;16.50;96.00;;;;;;5051813;28;20286;-72
2021/09/27 04:17:04;;;;;;;104.47;47.38;;;16.50;96.00;;;;;;5032277;28;20033;-71
2021/09/27 04:20:09;;;;;;;103.18;48.10;;;16.50;96.00;;;;;;5031915;28;20029;-73
2021/09/27 04:22:41;;;;;;;102.80;47.13;;;16.60;96.10;;;;;;5049968;28;20406;-72
2021/09/27 04:25:17;;;;;;;93.40;42.08;;;16.50;96.10;;;;;;5048518;28;20036;-71
2021/09/27 04:28:13;;;;;;;107.15;47.00;;;16.60;96.10;;;;;;5032903;28;20115;-73
2021/09/27 04:30:39;;;;;;;103.18;44.42;;;16.60;96.10;;;;;;5077707;23;20528;-70
2021/09/27 04:33:30;;;;;;;95.30;42.90;;;16.60;96.10;;;;;;5062261;28;20024;-70
2021/09/27 04:36:11;;;;;;;109.80;45.97;;;16.50;96.10;;;;;;5068453;28;20111;-69
2021/09/27 04:38:38;;;;;;;;;;;16.60;96.10;;;;;;5070490;28;20436;-70
2021/09/27 04:41:42;;;;;;;93.43;40.28;;;16.50;96.10;;;;;;5068709;28;19908;-70
2021/09/27 04:44:25;;;;;;;91.35;40.20;;;16.50;96.10;;;;;;5067759;28;20029;-70
2021/09/27 04:47:20;;;;;;;87.90;38.88;;;16.50;96.10;;;;;;5070333;28;20028;-70
2021/09/27 04:50:09;;;;;;;78.70;38.47;;;16.50;96.10;;;;;;5069340;28;20032;-69
2021/09/27 04:53:07;;;;;;;90.20;39.08;;;16.50;96.10;;;;;;5069650;28;20028;-69
2021/09/27 04:55:42;;;;;;;97.07;40.20;;;16.50;96.10;;;;;;5071803;28;20486;-68
2021/09/27 04:58:27;;;;;;;78.18;33.22;;;16.50;96.10;;;;;;5069914;28;20097;-70
2021/09/27 05:00:55;;;;;;;88.57;35.00;;;16.50;96.10;;;;;;5068346;28;20024;-70
2021/09/27 05:03:39;;;;;;;77.90;33.13;;;16.40;96.10;;;;;;5069247;28;20402;-68
2021/09/27 05:06:19;;;;;;;74.90;34.05;;;16.40;96.10;;;;;;5064478;28;20017;-68
2021/09/27 05:09:06;;;;;;;94.57;37.35;;;16.40;96.10;;;;;;5066490;28;20078;-69
2021/09/27 05:12:01;;;;;;;82.15;35.63;;;16.40;96.10;;;;;;5070748;28;20032;-69
2021/09/27 05:14:47;;;;;;;103.63;39.13;;;16.40;96.20;;;;;;5062631;28;20179;-68
2021/09/27 05:17:39;;;;;;;110.30;39.15;;;16.40;96.20;;;;;;5065139;28;20024;-70
2021/09/27 05:20:16;;;;;;;81.50;35.05;;;16.50;96.20;;;;;;5069010;28;20028;-70
2021/09/27 05:23:11;;;;;;;72.82;34.28;;;16.40;96.20;;;;;;5067371;28;20028;-69
2021/09/27 05:25:50;;;;;;;104.80;40.05;;;16.50;96.20;;;;;;5062834;28;20032;-69
2021/09/27 05:28:43;;;;;;;107.25;40.92;;;16.50;96.20;;;;;;5064082;28;20024;-69
2021/09/27 05:31:30;;;;;;;106.00;39.58;;;16.50;96.20;;;;;;5063817;28;20036;-70
2021/09/27 05:34:17;;;;;;;101.53;38.38;;;16.60;96.20;;;;;;5070506;28;20048;-69
2021/09/27 05:37:14;;;;;;;76.68;35.08;;;16.60;96.20;;;;;;5062673;28;20021;-69
2021/09/27 05:39:42;;;;;;;79.05;35.72;;;16.70;96.20;;;;;;5069490;28;20028;-69
2021/09/27 05:42:19;;;;;;;89.95;37.53;;;16.80;96.30;;;;;;5062490;28;20025;-69
2021/09/27 05:45:08;;;;;;;105.60;40.50;;;16.90;96.30;;;;;;5067487;28;20055;-69
2021/09/27 05:48:04;;;;;;;70.57;33.17;;;17.00;96.20;;;;;;5072536;28;20024;-69
2021/09/27 05:50:51;;;;;;;84.70;35.55;;;17.10;96.30;;;;;;5067205;28;20559;-70
2021/09/27 05:53:31;;;;;;;87.68;35.97;;;17.20;96.30;;;;;;5072782;28;20039;-69
2021/09/27 05:56:19;;;;;;;86.17;36.23;;;17.20;96.30;;;;;;5070381;28;20057;-69
2021/09/27 05:59:19;;;;;;;96.70;35.40;;;17.20;96.20;;;;;;5064697;28;20302;-69
2021/09/27 06:02:14;;;;;;;88.22;33.45;;;17.10;96.10;;;;;;5066182;28;20041;-69
2021/09/27 06:04:56;;;;;;;76.30;30.98;;;17.20;96.20;;;;;;5059939;28;20460;-69
2021/09/27 06:07:44;;;;;;;81.13;33.30;;;17.20;96.20;;;;;;5069638;28;20378;-70
2021/09/27 06:10:19;;;;;;;79.40;30.88;;;17.20;96.20;;;;;;5062434;28;20032;-69
2021/09/27 06:13:08;;;;;;;81.25;32.47;;;17.20;96.20;;;;;;5069036;28;20024;-69
2021/09/27 06:15:47;;;;;;;80.63;32.78;;;17.30;96.20;;;;;;5068385;28;20028;-69
2021/09/27 06:18:24;;;;;;;102.05;35.17;;;17.20;96.10;;;;;;5063901;28;20099;-69
2021/09/27 06:21:10;;;;;;;80.70;32.97;;;17.20;96.10;;;;;;5064930;28;20062;-69
2021/09/27 06:23:57;;;;;;;84.07;32.90;;;17.20;96.10;;;;;;5067221;28;20047;-69
2021/09/27 06:26:26;;;;;;;100.57;34.95;;;17.20;96.20;;;;;;5064339;28;20112;-69
2021/09/27 06:29:03;;;;;;;88.75;32.38;;;17.20;96.10;;;;;;5065772;28;21369;-69
2021/09/27 06:31:38;;;;;;;91.03;34.33;;;17.30;96.20;;;;;;5066495;28;20108;-69
2021/09/27 06:34:11;;;;;;;81.30;29.05;;;17.40;96.20;;;;;;5069082;28;20166;-69
2021/09/27 06:36:38;;;;;;;85.65;36.50;;;17.30;96.00;;;;;;5081561;28;20032;-69
2021/09/27 06:39:10;;;;;;;84.93;38.60;;;17.00;95.70;;;;;;5067346;28;21279;-69
2021/09/27 06:41:39;;;;;;;76.45;38.58;;;16.80;95.70;;;;;;5065552;28;20028;-69
2021/09/27 06:44:04;;;;;;;86.53;39.70;;;16.80;95.70;;;;;;5070185;28;20040;-69
2021/09/27 06:46:30;;;;;;;85.38;37.08;;;17.00;95.90;;;;;;5073498;28;20024;-69
2021/09/27 06:48:56;;;;;;;72.65;31.08;;;17.20;96.00;;;;;;5065160;28;20028;-68
2021/09/27 06:51:21;;;;;;;49.30;28.08;;;17.20;95.90;;;;;;5071503;28;20046;-68
2021/09/27 06:53:47;;;;;;;61.83;33.15;;;17.10;95.60;;;;;;5070303;28;20504;-68
2021/09/27 06:56:13;;;;;;;60.05;31.05;;;17.30;95.70;;;;;;5070476;28;20082;-71
2021/09/27 06:58:39;;;;;;;60.25;30.60;;;17.20;95.30;;;;;;5070131;28;20089;-72
2021/09/27 07:01:04;;;;;;;53.40;30.45;;;17.40;95.50;;;;;;5065931;28;20162;-73
2021/09/27 07:03:30;;;;;;;50.38;30.05;;;17.20;94.80;;;;;;5069066;28;20115;-72
2021/09/27 07:05:56;;;;;;;47.92;29.98;;;17.50;95.30;;;;;;5072422;28;20044;-71
2021/09/27 07:08:23;;;;;;;51.15;32.00;;;17.60;95.00;;;;;;5073703;28;20074;-71
2021/09/27 07:10:51;;;;;;;44.22;26.13;;;17.80;95.10;;;;;;5072300;28;20025;-72
2021/09/27 07:13:18;;;;;;;30.23;23.45;;;18.10;95.10;;;;;;5073654;28;20024;-74
2021/09/27 07:15:43;;;;;;;28.27;22.25;;;17.90;93.10;;;;;;5072627;28;20032;-72
2021/09/27 07:18:09;;;;;;;29.15;22.40;;;18.20;93.50;;;;;;5071266;28;20028;-73
2021/09/27 07:20:35;;;;;;;30.20;22.58;;;18.50;93.50;;;;;;5071765;28;20081;-73
2021/09/27 07:23:00;;;;;;;22.80;19.67;;;18.70;93.30;;;;;;5072260;28;20375;-73
2021/09/27 07:25:28;;;;;;;74.55;54.22;;;18.60;92.00;;;;;;5070641;28;20029;-69
2021/09/27 07:27:54;;;;;;;65.72;46.05;;;18.60;91.10;;;;;;5057549;28;20063;-74
2021/09/27 07:30:20;;;;;;;20.38;16.73;;;18.90;91.80;;;;;;5067774;28;20094;-69
2021/09/27 07:32:47;;;;;;;19.75;14.93;;;19.00;91.10;;;;;;5070674;28;20036;-69
2021/09/27 07:35:15;;;;;;;26.20;19.13;;;18.60;89.00;;;;;;5068242;28;20121;-68
2021/09/27 07:37:41;;;;;;;23.70;19.17;;;18.40;89.40;;;;;;5070743;28;20465;-68
2021/09/27 07:40:09;;;;;;;19.55;16.35;;;18.70;91.30;;;;;;5063553;28;20109;-69
2021/09/27 07:42:35;;;;;;;22.48;17.80;;;18.70;90.80;;;;;;5063630;28;20033;-69
2021/09/27 07:45:01;;;;;;;24.35;18.40;;;19.00;91.20;;;;;;5074530;28;20039;-69
2021/09/27 07:47:26;;;;;;;19.05;16.10;;;19.10;90.00;;;;;;5075336;28;20105;-69
2021/09/27 07:49:52;;;;;;;20.60;15.50;;;19.20;88.90;;;;;;5067643;28;20059;-68
2021/09/27 07:52:17;;;;;;;18.15;13.48;;;19.30;89.20;;;;;;5067736;28;20107;-69
2021/09/27 07:54:43;;;;;;;18.58;13.60;;;19.40;87.50;;;;;;5071304;28;20074;-69
2021/09/27 07:57:09;;;;;;;17.00;13.48;;;19.20;87.80;;;;;;5072062;28;20032;-70
2021/09/27 07:59:35;;;;;;;21.27;14.57;;;19.10;86.70;;;;;;5076077;28;20024;-71
2021/09/27 08:02:01;;;;;;;17.25;14.20;;;19.10;88.30;;;;;;5073469;28;20034;-69
2021/09/27 08:04:26;;;;;;;15.90;13.88;;;19.20;88.40;;;;;;5068345;28;20432;-69
2021/09/27 08:06:52;;;;;;;18.67;14.48;;;19.50;89.30;;;;;;5071760;28;20635;-71
2021/09/27 08:09:17;;;;;;;18.88;13.65;;;19.50;87.10;;;;;;5070473;28;20021;-70
2021/09/27 08:11:43;;;;;;;15.70;12.65;;;19.60;86.20;;;;;;5075311;28;20024;-72
2021/09/27 08:14:11;;;;;;;18.00;12.73;;;19.60;86.50;;;;;;5086625;28;20547;-72
2021/09/27 08:16:37;;;;;;;16.25;13.88;;;19.80;87.50;;;;;;5073698;28;20058;-70
2021/09/27 08:19:04;;;;;;;16.77;11.77;;;20.00;86.20;;;;;;5074475;28;21228;-69
2021/09/27 08:21:30;;;;;;;13.13;11.55;;;20.10;85.70;;;;;;5074837;28;20032;-69
2021/09/27 08:23:55;;;;;;;13.18;11.70;;;20.40;83.60;;;;;;5072827;28;20028;-70
2021/09/27 08:26:21;;;;;;;13.32;11.02;;;20.30;82.80;;;;;;5070589;28;20028;-70
2021/09/27 08:28:48;;;;;;;11.68;10.48;;;20.40;84.80;;;;;;5067747;28;20020;-73
2021/09/27 08:31:19;;;;;;;11.52;9.35;;;20.50;84.50;;;;;;5070568;28;20028;-73
2021/09/27 08:33:46;;;;;;;12.00;9.15;;;20.60;83.20;;;;;;5069149;28;20040;-72
2021/09/27 08:36:14;;;;;;;13.15;8.23;;;20.90;82.40;;;;;;5070330;28;20032;-71
2021/09/27 08:38:41;;;;;;;8.65;7.57;;;21.00;81.50;;;;;;5066514;28;20223;-73
2021/09/27 08:41:20;;;;;;;8.32;7.53;;;21.00;80.60;;;;;;5070886;28;20040;-73
2021/09/27 08:44:09;;;;;;;7.78;6.13;;;21.30;82.50;;;;;;5070568;28;20119;-71
2021/09/27 08:46:48;;;;;;;6.90;6.20;;;21.40;79.50;;;;;;5074769;28;20050;-72
2021/09/27 08:49:28;;;;;;;6.80;6.10;;;21.60;80.80;;;;;;5064882;28;20028;-70
2021/09/27 08:51:54;;;;;;;8.18;7.25;;;21.70;81.80;;;;;;5069602;28;20530;-71
2021/09/27 08:54:24;;;;;;;7.25;6.07;;;21.80;80.10;;;;;;5068785;28;20103;-71
2021/09/27 08:57:01;;;;;;;7.20;6.40;;;21.70;80.20;;;;;;5071200;28;20094;-72
2021/09/27 08:59:38;;;;;;;8.35;6.50;;;21.80;80.70;;;;;;5072931;28;20033;-71
2021/09/27 09:02:06;;;;;;;7.03;5.90;;;21.80;78.30;;;;;;5073565;28;20035;-71
2021/09/27 09:05:07;;;;;;;7.03;5.93;;;22.00;78.70;;;;;;5067955;28;20041;-73
2021/09/27 09:07:46;;;;;;;5.97;5.45;;;22.10;78.30;;;;;;5069098;28;20074;-70
2021/09/27 09:10:14;;;;;;;7.35;5.97;;;22.30;79.70;;;;;;5075471;28;20493;-72
2021/09/27 09:12:52;;;;;;;8.52;6.78;;;22.40;76.20;;;;;;5068408;28;20063;-73
2021/09/27 09:15:24;;;;;;;7.95;6.10;;;22.40;74.70;;;;;;5070631;28;20024;-71
2021/09/27 09:17:56;;;;;;;20.67;15.50;;;22.40;74.40;;;;;;5070681;28;20033;-73
2021/09/27 09:20:45;;;;;;;11.88;9.45;;;22.40;75.50;;;;;;5077390;28;20119;-73
2021/09/27 09:23:20;;;;;;;11.48;9.55;;;22.40;75.70;;;;;;5070838;28;20030;-71
2021/09/27 09:25:46;;;;;;;7.35;6.63;;;22.60;74.30;;;;;;5069440;28;20433;-71
2021/09/27 09:28:12;;;;;;;12.05;8.48;;;22.60;72.60;;;;;;5072685;28;20101;-71
2021/09/27 09:30:46;;;;;;;6.63;4.95;;;22.70;71.70;;;;;;5067573;28;20029;-71
2021/09/27 09:33:39;;;;;;;9.07;5.28;;;22.50;67.90;;;;;;5074091;28;20099;-70
2021/09/27 09:36:06;;;;;;;6.80;5.90;;;22.50;70.40;;;;;;5071579;28;20477;-71
2021/09/27 09:38:36;;;;;;;7.18;5.95;;;22.90;73.50;;;;;;5065890;28;20107;-72
2021/09/27 09:41:02;;;;;;;5.95;5.18;;;23.10;71.90;;;;;;5070010;28;20394;-69
2021/09/27 09:43:35;;;;;;;6.38;5.22;;;23.20;69.40;;;;;;5061136;28;20119;-71
2021/09/27 09:46:10;;;;;;;6.03;5.43;;;23.20;67.60;;;;;;5067930;28;20029;-69
2021/09/27 09:48:38;;;;;;;6.32;5.60;;;23.40;71.80;;;;;;5067002;28;20021;-68
2021/09/27 09:51:33;;;;;;;6.40;5.35;;;23.50;70.20;;;;;;5072590;28;20039;-67
2021/09/27 09:54:14;;;;;;;9.88;6.45;;;23.70;70.40;;;;;;5066810;28;20032;-67
2021/09/27 09:56:44;;;;;;;5.57;5.07;;;23.90;68.80;;;;;;5082260;28;20028;-67
2021/09/27 09:59:59;;;;;;;5.43;4.47;;;24.00;68.30;;;;;;5079393;28;20485;-67
2021/09/27 10:02:25;;;;;;;6.00;4.80;;;24.10;65.50;;;;;;4987212;28;20069;-67
2021/09/27 10:05:03;;;;;;;5.70;5.10;;;24.20;66.10;;;;;;5070476;28;20048;-67
2021/09/27 10:07:54;;;;;;;5.53;4.95;;;24.20;65.30;;;;;;5085146;28;20112;-67
2021/09/27 10:11:15;;;;;;;5.05;4.53;;;24.10;66.00;;;;;;5082860;28;20185;-67
2021/09/27 10:13:52;;;;;;;5.97;4.90;;;24.00;63.40;;;;;;5068940;28;20561;-67
2021/09/27 10:16:38;;;;;;;4.80;4.30;;;23.70;64.50;;;;;;5084480;28;20070;-67
2021/09/27 10:19:21;;;;;;;5.65;4.50;;;24.00;67.40;;;;;;5081758;28;20039;-67
2021/09/27 10:22:09;;;;;;;4.72;4.13;;;24.30;65.20;;;;;;5086733;28;20032;-66
2021/09/27 10:24:41;;;;;;;4.53;4.10;;;24.30;62.30;;;;;;5081581;28;20047;-66
2021/09/27 10:27:27;;;;;;;6.93;4.75;;;24.30;61.60;;;;;;5082736;28;20020;-66
2021/09/27 10:29:55;;;;;;;6.68;4.32;;;24.40;64.00;;;;;;5100319;22;20392;-70
2021/09/27 10:32:49;;;;;;;4.80;4.25;;;24.60;64.40;;;;;;5049452;28;20025;-70
2021/09/27 10:35:45;;;;;;;5.78;4.57;;;24.90;62.30;;;;;;5030723;28;20033;-72
2021/09/27 10:38:28;;;;;;;4.60;4.20;;;24.50;63.90;;;;;;5055473;28;20025;-71
2021/09/27 10:40:54;;;;;;;9.48;5.10;;;24.80;62.80;;;;;;5067003;28;20042;-71
2021/09/27 10:43:23;;;;;;;5.35;4.85;;;24.90;62.40;;;;;;5041875;28;20029;-71
2021/09/27 10:45:54;;;;;;;5.93;4.80;;;25.00;62.90;;;;;;5048830;28;20029;-71
2021/09/27 10:48:21;;;;;;;6.20;4.95;;;24.90;61.60;;;;;;5038334;28;20020;-72
2021/09/27 10:51:08;;;;;;;7.18;5.53;;;24.90;62.80;;;;;;5064262;28;20081;-71
2021/09/27 10:53:52;;;;;;;8.63;5.00;;;25.10;60.80;;;;;;5059938;28;20117;-71
2021/09/27 10:56:41;;;;;;;5.57;4.57;;;25.20;60.10;;;;;;5063168;28;20029;-71
2021/09/27 10:59:13;;;;;;;5.47;4.55;;;24.90;60.20;;;;;;5063773;28;20043;-71
2021/09/27 11:01:52;;;;;;;7.97;5.10;;;24.90;61.30;;;;;;5039336;28;20033;-71
2021/09/27 11:04:29;;;;;;;10.05;5.00;;;24.90;61.20;;;;;;5055820;28;20036;-70
2021/09/27 11:07:11;;;;;;;6.03;4.90;;;25.00;59.80;;;;;;5060573;28;20110;-71
2021/09/27 11:09:37;;;;;;;8.13;5.30;;;25.10;61.30;;;;;;5055458;28;20344;-70
2021/09/27 11:12:11;;;;;;;5.68;4.65;;;25.20;60.60;;;;;;5068111;28;20025;-71
2021/09/27 11:14:40;;;;;;;5.50;4.85;;;25.30;60.50;;;;;;5057476;28;20033;-71
2021/09/27 11:17:05;;;;;;;5.93;4.20;;;25.30;60.00;;;;;;5035821;28;20025;-71
2021/09/27 11:19:40;;;;;;;5.25;4.18;;;25.10;58.00;;;;;;5045322;28;20032;-71
2021/09/27 11:22:17;;;;;;;6.80;4.93;;;24.00;61.20;;;;;;5058361;28;20040;-71
2021/09/27 11:24:43;;;;;;;7.78;5.22;;;23.40;63.00;;;;;;5051697;28;20037;-70
2021/09/27 11:27:34;;;;;;;5.43;4.93;;;23.50;63.20;;;;;;5029627;28;20027;-71
2021/09/27 11:30:35;;;;;;;7.35;5.13;;;23.20;65.00;;;;;;5050933;28;20036;-74
2021/09/27 11:33:01;;;;;;;6.10;5.40;;;23.50;63.60;;;;;;5048230;28;20518;-72
2021/09/27 11:35:38;;;;;;;6.63;5.07;;;23.20;64.00;;;;;;5034853;28;20029;-73
2021/09/27 11:38:07;;;;;;;6.18;4.60;;;23.20;65.20;;;;;;5033572;28;20120;-74
2021/09/27 11:40:41;;;;;;;9.20;5.00;;;23.30;63.70;;;;;;5047860;28;20487;-74
2021/09/27 11:43:07;;;;;;;5.68;4.95;;;23.30;64.10;;;;;;5032054;28;20116;-75
2021/09/27 11:45:46;;;;;;;5.35;4.32;;;23.30;63.50;;;;;;5042684;28;20121;-72
2021/09/27 11:48:18;;;;;;;5.00;4.60;;;23.30;63.30;;;;;;5048738;28;20074;-73
2021/09/27 11:51:03;;;;;;;5.55;4.55;;;23.20;62.80;;;;;;5050544;28;20048;-72
2021/09/27 11:53:36;;;;;;;7.25;4.75;;;22.90;64.50;;;;;;5050783;28;20508;-73
2021/09/27 11:56:07;;;;;;;5.53;4.70;;;22.70;64.30;;;;;;5036547;28;20494;-73
2021/09/27 11:58:47;;;;;;;5.15;4.50;;;22.50;65.40;;;;;;5048207;28;20040;-74
2021/09/27 12:01:31;;;;;;;6.90;5.63;;;22.40;66.30;;;;;;5053390;28;20036;-74
2021/09/27 12:04:25;;;;;;;6.38;5.15;;;22.60;65.60;;;;;;5036062;28;20037;-72
2021/09/27 12:06:56;;;;;;;9.18;5.25;;;22.80;66.10;;;;;;5041217;28;20138;-74
2021/09/27 12:09:33;;;;;;;6.70;5.00;;;22.90;64.70;;;;;;5050839;28;20022;-75
2021/09/27 12:11:59;;;;;;;9.85;5.47;;;23.20;64.00;;;;;;5057067;28;20075;-73
2021/09/27 12:14:34;;;;;;;5.40;4.88;;;23.50;63.40;;;;;;5063641;28;20560;-73
2021/09/27 12:17:04;;;;;;;21.63;14.27;;;23.60;63.30;;;;;;5052945;28;20095;-72
2021/09/27 12:19:34;;;;;;;19.52;14.73;;;23.80;63.00;;;;;;5047212;28;20550;-72
2021/09/27 12:22:06;;;;;;;9.20;7.85;;;24.00;62.00;;;;;;5066209;28;20517;-70
2021/09/27 12:24:37;;;;;;;16.77;13.45;;;24.00;61.30;;;;;;5053383;28;20491;-74
2021/09/27 12:27:24;;;;;;;30.02;22.67;;;24.10;61.60;;;;;;5053204;28;20044;-72
2021/09/27 12:30:05;;;;;;;20.60;17.17;;;24.20;61.70;;;;;;5033235;28;20033;-72
2021/09/27 12:32:41;;;;;;;12.45;7.95;;;24.00;61.90;;;;;;5051642;28;20032;-76
2021/09/27 12:35:16;;;;;;;6.85;6.15;;;23.90;60.40;;;;;;5034298;28;20025;-73
2021/09/27 12:37:44;;;;;;;7.00;5.63;;;24.00;61.30;;;;;;5033907;28;20025;-72
2021/09/27 12:40:14;;;;;;;8.57;4.97;;;24.00;61.60;;;;;;5031777;28;20033;-71
2021/09/27 12:43:09;;;;;;;9.95;5.38;;;23.80;61.10;;;;;;5053043;28;20025;-73
2021/09/27 12:46:01;;;;;;;7.57;5.93;;;23.50;61.40;;;;;;5036724;28;20098;-70
2021/09/27 12:48:28;;;;;;;7.43;5.57;;;22.90;63.50;;;;;;5032370;28;20021;-68
2021/09/27 12:51:21;;;;;;;6.70;5.30;;;22.50;64.60;;;;;;5049263;28;20391;-73
2021/09/27 12:54:25;;;;;;;7.30;5.63;;;22.40;65.20;;;;;;5048191;28;20041;-74
2021/09/27 12:56:54;;;;;;;16.40;6.32;;;22.50;64.90;;;;;;5004235;28;20457;-72
2021/09/27 12:59:25;;;;;;;8.25;5.55;;;22.50;65.50;;;;;;5047983;28;20482;-71
2021/09/27 13:01:58;;;;;;;8.57;6.00;;;22.70;65.30;;;;;;5046522;28;20021;-71
2021/09/27 13:04:32;;;;;;;5.85;5.10;;;22.80;64.90;;;;;;5051108;28;20068;-71
2021/09/27 13:07:05;;;;;;;5.80;5.20;;;23.00;64.20;;;;;;5051790;28;20094;-71
2021/09/27 13:09:37;;;;;;;6.78;5.75;;;23.10;64.10;;;;;;5031663;28;20040;-71
2021/09/27 13:12:25;;;;;;;5.65;4.85;;;23.30;64.40;;;;;;5049447;28;20514;-72
2021/09/27 13:14:59;;;;;;;8.55;7.57;;;23.40;64.00;;;;;;5047576;28;20028;-73
2021/09/27 13:17:27;;;;;;;5.88;5.35;;;23.50;63.30;;;;;;5052668;28;20031;-73
2021/09/27 13:19:55;;;;;;;6.93;4.95;;;23.60;62.60;;;;;;5051554;28;20048;-72
2021/09/27 13:22:27;;;;;;;7.55;6.75;;;23.70;62.00;;;;;;5047557;28;20462;-72
2021/09/27 13:25:12;;;;;;;7.32;5.47;;;23.70;62.70;;;;;;5048928;28;20024;-72